createdAt,value
2022-12-17T00:04:20.060Z,84.68
2022-12-17T00:08:40.949Z,85.21
2022-12-17T00:13:07.217Z,86.12
2022-12-17T00:17:28.224Z,86.35
2022-12-17T00:21:50.392Z,86.38
2022-12-17T00:26:11.619Z,85.82
2022-12-17T00:30:32.383Z,87.92
2022-12-17T00:34:52.982Z,85.81
2022-12-17T00:52:31.010Z,85.79
2022-12-17T05:52:47.994Z,84.94
2022-12-17T09:40:05.412Z,83.08
2022-12-17T09:44:29.989Z,84.63
2022-12-17T09:48:54.870Z,83.46
2022-12-17T09:53:15.443Z,85.46
2022-12-17T09:57:41.245Z,83.85
2022-12-17T10:02:01.965Z,82.99
2022-12-17T10:06:32.763Z,83.70
2022-12-17T10:10:49.408Z,82.82
2022-12-17T10:15:10.947Z,82.70
2022-12-17T10:19:43.342Z,82.51
2022-12-17T10:24:04.264Z,82.91
2022-12-17T10:28:26.345Z,83.02
2022-12-17T10:32:48.913Z,81.84
2022-12-17T10:37:10.384Z,81.41
2022-12-17T10:41:40.963Z,82.05
2022-12-17T10:46:11.932Z,83.03
2022-12-17T10:50:35.453Z,81.74
2022-12-17T10:54:55.804Z,81.56
2022-12-17T10:59:16.184Z,80.96
2022-12-17T11:03:46.143Z,78.77
2022-12-17T11:08:07.964Z,80.44
2022-12-17T11:12:31.055Z,79.93
2022-12-17T11:16:55.756Z,79.88
2022-12-17T11:21:19.000Z,78.57
2022-12-17T11:25:47.611Z,78.60
2022-12-17T11:30:08.010Z,77.07
2022-12-17T11:34:32.840Z,76.35
2022-12-17T11:38:57.338Z,76.65
2022-12-17T11:43:24.874Z,78.33
2022-12-17T11:47:57.481Z,78.68
2022-12-17T11:52:24.579Z,79.15
2022-12-17T11:56:51.313Z,77.26
2022-12-17T12:01:20.439Z,77.96
2022-12-17T12:05:45.006Z,75.36
2022-12-17T12:10:13.488Z,74.77
2022-12-17T12:14:43.553Z,74.94
2022-12-17T12:19:13.968Z,75.73
2022-12-17T12:23:41.017Z,72.33
2022-12-17T12:28:10.300Z,71.72
2022-12-17T12:32:34.989Z,70.69
2022-12-17T12:36:58.378Z,70.94
2022-12-17T12:41:21.826Z,69.71
2022-12-17T12:45:48.130Z,70.05
2022-12-17T12:50:13.403Z,69.50
2022-12-17T12:54:43.411Z,66.04
2022-12-17T12:59:03.622Z,66.83
2022-12-17T13:03:31.196Z,66.61
2022-12-17T13:07:38.005Z,65.96
2022-12-17T13:11:43.797Z,65.13
2022-12-17T13:15:49.086Z,69.34
2022-12-17T13:20:02.972Z,65.28
2022-12-17T13:24:12.309Z,64.78
2022-12-17T13:28:31.008Z,68.35
2022-12-17T13:32:39.817Z,69.38
2022-12-17T13:36:47.916Z,67.73
2022-12-17T13:41:04.025Z,69.49
2022-12-17T13:45:15.904Z,68.83
2022-12-17T13:49:20.667Z,67.19
2022-12-17T13:53:23.973Z,65.13
2022-12-17T13:57:28.241Z,65.55
2022-12-17T14:01:33.813Z,68.21
2022-12-17T14:05:38.378Z,67.92
2022-12-17T14:09:44.790Z,69.08
2022-12-17T14:13:50.348Z,69.75
2022-12-17T14:17:57.071Z,66.38
2022-12-17T14:22:00.821Z,65.56
2022-12-17T14:26:06.130Z,69.41
2022-12-17T14:30:22.496Z,66.26
2022-12-17T14:34:27.108Z,68.16
2022-12-17T14:38:38.372Z,69.87
2022-12-17T14:42:41.772Z,67.30
2022-12-17T14:46:45.242Z,70.00
2022-12-17T14:50:57.982Z,70.94
2022-12-17T14:55:00.946Z,71.14
2022-12-17T14:59:03.760Z,74.50
2022-12-17T15:03:07.322Z,74.74
2022-12-17T15:07:18.030Z,75.32
2022-12-17T15:11:24.340Z,77.58
2022-12-17T15:15:27.205Z,77.03
2022-12-17T15:19:30.595Z,77.76
2022-12-17T15:23:34.901Z,76.54
2022-12-17T15:27:38.771Z,77.66
2022-12-17T15:31:42.035Z,78.13
2022-12-17T15:35:45.660Z,78.43
2022-12-17T15:39:50.197Z,78.20
2022-12-17T15:43:53.514Z,79.86
2022-12-17T15:47:57.298Z,79.89
2022-12-17T15:52:00.703Z,81.06
2022-12-17T15:56:06.089Z,80.96
2022-12-17T16:00:10.277Z,81.77
2022-12-17T16:04:19.012Z,82.95
2022-12-17T16:08:24.455Z,82.44
2022-12-17T16:12:30.014Z,84.13
2022-12-17T16:16:33.171Z,84.45
2022-12-17T16:20:36.397Z,84.00
2022-12-17T16:24:41.022Z,83.46
2022-12-17T16:28:45.883Z,84.95
2022-12-17T16:32:49.340Z,83.77
2022-12-17T16:36:52.982Z,83.74
2022-12-17T16:40:57.759Z,85.17
2022-12-17T16:45:04.616Z,84.43
2022-12-17T16:49:09.958Z,85.08
2022-12-17T16:53:13.790Z,85.57
2022-12-17T16:57:17.125Z,85.10
2022-12-17T17:01:22.934Z,84.13
2022-12-17T17:05:26.132Z,85.22
2022-12-17T17:09:30.000Z,84.86
2022-12-17T17:13:33.189Z,85.24
2022-12-17T17:17:54.504Z,85.39
2022-12-17T17:21:59.548Z,85.67
2022-12-17T17:26:03.563Z,86.21
2022-12-17T17:30:07.700Z,85.48
2022-12-17T17:34:13.454Z,86.36
2022-12-17T17:38:16.811Z,86.24
2022-12-17T17:42:20.203Z,85.50
2022-12-17T17:46:23.992Z,86.28
2022-12-17T17:50:28.624Z,85.79
2022-12-17T17:54:31.991Z,86.47
2022-12-17T17:58:35.832Z,85.79
2022-12-17T18:02:39.251Z,86.10
2022-12-17T18:07:02.513Z,87.60
2022-12-17T18:11:11.661Z,85.97
2022-12-17T18:15:16.860Z,85.60
2022-12-17T18:19:23.055Z,86.65
2022-12-17T18:23:27.788Z,86.76
2022-12-17T18:27:30.954Z,86.90
2022-12-17T18:31:34.165Z,86.15
2022-12-17T18:35:37.386Z,85.75
2022-12-17T18:39:42.041Z,87.53
2022-12-17T18:43:45.089Z,87.11
2022-12-17T18:47:48.617Z,87.01
2022-12-17T18:51:52.934Z,87.33
2022-12-17T18:55:57.501Z,87.23
2022-12-17T19:00:02.620Z,87.41
2022-12-17T19:04:07.974Z,88.04
2022-12-17T19:08:11.089Z,86.08
2022-12-17T19:12:15.693Z,86.84
2022-12-17T19:16:21.120Z,87.09
2022-12-17T19:20:24.277Z,87.71
2022-12-17T19:24:27.477Z,86.68
2022-12-17T19:28:32.103Z,87.52
2022-12-17T19:32:35.341Z,87.94
2022-12-17T19:36:39.571Z,87.74
2022-12-17T19:40:42.957Z,87.77
2022-12-17T19:44:48.911Z,88.11
2022-12-17T19:52:56.387Z,87.72
2022-12-17T20:05:30.063Z,86.24
2022-12-17T20:56:37.195Z,87.91
2022-12-17T21:44:02.225Z,87.45
